sensor_id;sensor_type;location;lat;lon;timestamp;P1;durP1;ratioP1;P2;durP2;ratioP2
55465;SDS011;41329;41.594;23.810;2023-05-14T00:02:09;6.47;;;6.07;;
55465;SDS011;41329;41.594;23.810;2023-05-14T00:04:34;6.65;;;6.07;;
55465;SDS011;41329;41.594;23.810;2023-05-14T00:07:00;6.80;;;6.38;;
55465;SDS011;41329;41.594;23.810;2023-05-14T00:09:25;8.00;;;7.25;;
55465;SDS011;41329;41.594;23.810;2023-05-14T00:11:51;7.40;;;6.68;;
55465;SDS011;41329;41.594;23.810;2023-05-14T00:14:16;7.28;;;6.78;;
55465;SDS011;41329;41.594;23.810;2023-05-14T00:16:41;6.18;;;5.70;;
55465;SDS011;41329;41.594;23.810;2023-05-14T00:19:07;7.05;;;6.43;;
55465;SDS011;41329;41.594;23.810;2023-05-14T00:21:32;8.18;;;6.15;;
55465;SDS011;41329;41.594;23.810;2023-05-14T00:23:58;5.88;;;5.38;;
55465;SDS011;41329;41.594;23.810;2023-05-14T00:26:23;6.63;;;6.13;;
55465;SDS011;41329;41.594;23.810;2023-05-14T00:28:49;7.25;;;6.78;;
55465;SDS011;41329;41.594;23.810;2023-05-14T00:31:14;6.35;;;5.95;;
55465;SDS011;41329;41.594;23.810;2023-05-14T00:33:40;5.68;;;5.38;;
55465;SDS011;41329;41.594;23.810;2023-05-14T00:36:06;6.45;;;5.90;;
55465;SDS011;41329;41.594;23.810;2023-05-14T00:38:32;7.65;;;7.10;;
55465;SDS011;41329;41.594;23.810;2023-05-14T00:40:57;5.82;;;5.40;;
55465;SDS011;41329;41.594;23.810;2023-05-14T00:43:22;5.85;;;5.40;;
55465;SDS011;41329;41.594;23.810;2023-05-14T00:45:49;6.20;;;5.47;;
55465;SDS011;41329;41.594;23.810;2023-05-14T00:48:16;5.53;;;5.15;;
55465;SDS011;41329;41.594;23.810;2023-05-14T00:50:42;5.80;;;5.32;;
55465;SDS011;41329;41.594;23.810;2023-05-14T00:53:08;5.07;;;4.57;;
55465;SDS011;41329;41.594;23.810;2023-05-14T00:55:37;5.97;;;5.45;;
55465;SDS011;41329;41.594;23.810;2023-05-14T00:58:06;5.25;;;4.82;;
55465;SDS011;41329;41.594;23.810;2023-05-14T01:00:35;5.60;;;5.15;;
55465;SDS011;41329;41.594;23.810;2023-05-14T01:03:04;6.43;;;5.95;;
55465;SDS011;41329;41.594;23.810;2023-05-14T01:11:10;6.72;;;6.10;;
55465;SDS011;41329;41.594;23.810;2023-05-14T01:16:17;6.15;;;5.75;;
55465;SDS011;41329;41.594;23.810;2023-05-14T01:18:43;5.82;;;5.50;;
55465;SDS011;41329;41.594;23.810;2023-05-14T01:24:05;5.88;;;5.57;;
55465;SDS011;41329;41.594;23.810;2023-05-14T01:26:31;6.47;;;5.78;;
55465;SDS011;41329;41.594;23.810;2023-05-14T01:29:13;7.07;;;6.45;;
55465;SDS011;41329;41.594;23.810;2023-05-14T01:31:45;6.45;;;5.95;;
55465;SDS011;41329;41.594;23.810;2023-05-14T01:34:12;5.65;;;5.05;;
55465;SDS011;41329;41.594;23.810;2023-05-14T01:36:39;7.32;;;6.82;;
55465;SDS011;41329;41.594;23.810;2023-05-14T01:39:06;6.13;;;5.72;;
55465;SDS011;41329;41.594;23.810;2023-05-14T01:41:35;5.35;;;4.95;;
55465;SDS011;41329;41.594;23.810;2023-05-14T01:44:03;6.35;;;5.93;;
55465;SDS011;41329;41.594;23.810;2023-05-14T01:46:32;6.15;;;5.65;;
55465;SDS011;41329;41.594;23.810;2023-05-14T01:48:57;6.10;;;5.45;;
55465;SDS011;41329;41.594;23.810;2023-05-14T01:51:23;6.65;;;6.25;;
55465;SDS011;41329;41.594;23.810;2023-05-14T01:53:48;5.85;;;5.55;;
55465;SDS011;41329;41.594;23.810;2023-05-14T01:56:14;5.43;;;5.07;;
55465;SDS011;41329;41.594;23.810;2023-05-14T01:58:39;5.25;;;4.95;;
55465;SDS011;41329;41.594;23.810;2023-05-14T02:01:04;5.70;;;5.32;;
55465;SDS011;41329;41.594;23.810;2023-05-14T02:03:30;5.88;;;5.38;;
55465;SDS011;41329;41.594;23.810;2023-05-14T02:05:55;5.88;;;5.38;;
55465;SDS011;41329;41.594;23.810;2023-05-14T02:08:21;5.18;;;4.80;;
55465;SDS011;41329;41.594;23.810;2023-05-14T02:10:46;5.40;;;4.97;;
55465;SDS011;41329;41.594;23.810;2023-05-14T02:13:12;6.10;;;5.55;;
55465;SDS011;41329;41.594;23.810;2023-05-14T02:15:38;5.20;;;4.80;;
55465;SDS011;41329;41.594;23.810;2023-05-14T02:18:03;4.95;;;4.65;;
55465;SDS011;41329;41.594;23.810;2023-05-14T02:20:29;5.53;;;5.13;;
55465;SDS011;41329;41.594;23.810;2023-05-14T02:22:54;5.35;;;4.97;;
55465;SDS011;41329;41.594;23.810;2023-05-14T02:25:20;5.07;;;4.75;;
55465;SDS011;41329;41.594;23.810;2023-05-14T02:27:45;6.32;;;5.30;;
55465;SDS011;41329;41.594;23.810;2023-05-14T02:30:11;5.25;;;4.75;;
55465;SDS011;41329;41.594;23.810;2023-05-14T02:32:36;5.63;;;5.15;;
55465;SDS011;41329;41.594;23.810;2023-05-14T02:35:02;6.63;;;5.05;;
55465;SDS011;41329;41.594;23.810;2023-05-14T02:37:27;5.80;;;5.47;;
55465;SDS011;41329;41.594;23.810;2023-05-14T02:39:53;6.35;;;5.95;;
55465;SDS011;41329;41.594;23.810;2023-05-14T02:42:18;6.55;;;6.05;;
55465;SDS011;41329;41.594;23.810;2023-05-14T02:44:43;6.53;;;5.60;;
55465;SDS011;41329;41.594;23.810;2023-05-14T02:47:09;5.68;;;5.15;;
55465;SDS011;41329;41.594;23.810;2023-05-14T02:49:34;6.63;;;6.22;;
55465;SDS011;41329;41.594;23.810;2023-05-14T02:52:00;6.82;;;6.22;;
55465;SDS011;41329;41.594;23.810;2023-05-14T02:54:25;8.45;;;7.85;;
55465;SDS011;41329;41.594;23.810;2023-05-14T02:56:51;14.32;;;13.02;;
55465;SDS011;41329;41.594;23.810;2023-05-14T02:59:16;24.70;;;15.20;;
55465;SDS011;41329;41.594;23.810;2023-05-14T03:01:41;13.10;;;12.00;;
55465;SDS011;41329;41.594;23.810;2023-05-14T03:04:07;8.43;;;7.72;;
55465;SDS011;41329;41.594;23.810;2023-05-14T03:06:32;8.27;;;7.45;;
55465;SDS011;41329;41.594;23.810;2023-05-14T03:08:58;36.47;;;22.30;;
55465;SDS011;41329;41.594;23.810;2023-05-14T03:11:23;14.57;;;13.25;;
55465;SDS011;41329;41.594;23.810;2023-05-14T03:13:49;23.88;;;18.65;;
55465;SDS011;41329;41.594;23.810;2023-05-14T03:16:14;31.95;;;22.08;;
55465;SDS011;41329;41.594;23.810;2023-05-14T03:18:40;29.75;;;20.40;;
55465;SDS011;41329;41.594;23.810;2023-05-14T03:21:05;16.80;;;14.43;;
55465;SDS011;41329;41.594;23.810;2023-05-14T03:23:30;10.50;;;9.60;;
55465;SDS011;41329;41.594;23.810;2023-05-14T03:25:58;8.15;;;7.68;;
55465;SDS011;41329;41.594;23.810;2023-05-14T03:28:24;8.90;;;8.02;;
55465;SDS011;41329;41.594;23.810;2023-05-14T03:30:50;14.52;;;13.23;;
55465;SDS011;41329;41.594;23.810;2023-05-14T03:33:15;17.75;;;16.05;;
55465;SDS011;41329;41.594;23.810;2023-05-14T03:35:41;8.60;;;7.95;;
55465;SDS011;41329;41.594;23.810;2023-05-14T03:38:06;8.82;;;8.13;;
55465;SDS011;41329;41.594;23.810;2023-05-14T03:40:31;9.35;;;8.57;;
55465;SDS011;41329;41.594;23.810;2023-05-14T03:42:57;7.30;;;6.90;;
55465;SDS011;41329;41.594;23.810;2023-05-14T03:45:22;9.05;;;8.27;;
55465;SDS011;41329;41.594;23.810;2023-05-14T03:47:48;8.30;;;7.70;;
55465;SDS011;41329;41.594;23.810;2023-05-14T03:50:13;6.95;;;6.55;;
55465;SDS011;41329;41.594;23.810;2023-05-14T03:52:38;7.28;;;6.78;;
55465;SDS011;41329;41.594;23.810;2023-05-14T03:55:04;6.68;;;6.30;;
55465;SDS011;41329;41.594;23.810;2023-05-14T03:57:30;7.00;;;6.60;;
55465;SDS011;41329;41.594;23.810;2023-05-14T03:59:55;6.55;;;6.15;;
55465;SDS011;41329;41.594;23.810;2023-05-14T04:02:21;7.20;;;6.50;;
55465;SDS011;41329;41.594;23.810;2023-05-14T04:04:46;6.80;;;6.50;;
55465;SDS011;41329;41.594;23.810;2023-05-14T04:07:12;7.18;;;6.68;;
55465;SDS011;41329;41.594;23.810;2023-05-14T04:09:37;7.53;;;6.72;;
55465;SDS011;41329;41.594;23.810;2023-05-14T04:12:03;7.05;;;6.55;;
55465;SDS011;41329;41.594;23.810;2023-05-14T04:14:28;7.80;;;7.30;;
55465;SDS011;41329;41.594;23.810;2023-05-14T04:16:54;7.35;;;6.93;;
55465;SDS011;41329;41.594;23.810;2023-05-14T04:19:19;8.20;;;7.50;;
55465;SDS011;41329;41.594;23.810;2023-05-14T04:21:45;7.40;;;6.90;;
55465;SDS011;41329;41.594;23.810;2023-05-14T04:24:10;7.13;;;6.72;;
55465;SDS011;41329;41.594;23.810;2023-05-14T04:26:35;15.00;;;13.20;;
55465;SDS011;41329;41.594;23.810;2023-05-14T04:29:01;10.95;;;9.57;;
55465;SDS011;41329;41.594;23.810;2023-05-14T04:31:27;10.05;;;9.35;;
55465;SDS011;41329;41.594;23.810;2023-05-14T04:33:53;8.85;;;8.15;;
55465;SDS011;41329;41.594;23.810;2023-05-14T04:36:19;8.63;;;7.85;;
55465;SDS011;41329;41.594;23.810;2023-05-14T04:38:44;8.32;;;7.72;;
55465;SDS011;41329;41.594;23.810;2023-05-14T04:41:10;8.73;;;7.93;;
55465;SDS011;41329;41.594;23.810;2023-05-14T04:43:35;42.28;;;32.00;;
55465;SDS011;41329;41.594;23.810;2023-05-14T04:46:01;9.48;;;8.77;;
55465;SDS011;41329;41.594;23.810;2023-05-14T04:48:27;8.85;;;8.15;;
55465;SDS011;41329;41.594;23.810;2023-05-14T04:50:52;9.25;;;8.55;;
55465;SDS011;41329;41.594;23.810;2023-05-14T04:53:18;8.60;;;8.00;;
55465;SDS011;41329;41.594;23.810;2023-05-14T04:55:43;8.50;;;7.93;;
55465;SDS011;41329;41.594;23.810;2023-05-14T04:58:08;8.50;;;7.70;;
55465;SDS011;41329;41.594;23.810;2023-05-14T05:00:34;7.78;;;7.30;;
55465;SDS011;41329;41.594;23.810;2023-05-14T05:02:59;7.95;;;7.55;;
55465;SDS011;41329;41.594;23.810;2023-05-14T05:05:24;9.95;;;9.05;;
55465;SDS011;41329;41.594;23.810;2023-05-14T05:07:50;28.20;;;18.65;;
55465;SDS011;41329;41.594;23.810;2023-05-14T05:10:15;8.30;;;7.72;;
55465;SDS011;41329;41.594;23.810;2023-05-14T05:12:41;8.90;;;8.40;;
55465;SDS011;41329;41.594;23.810;2023-05-14T05:15:06;9.10;;;8.32;;
55465;SDS011;41329;41.594;23.810;2023-05-14T05:17:33;8.07;;;7.45;;
55465;SDS011;41329;41.594;23.810;2023-05-14T05:19:59;7.50;;;6.90;;
55465;SDS011;41329;41.594;23.810;2023-05-14T05:22:24;10.10;;;9.40;;
55465;SDS011;41329;41.594;23.810;2023-05-14T05:24:50;8.48;;;7.97;;
55465;SDS011;41329;41.594;23.810;2023-05-14T05:27:15;8.02;;;7.38;;
55465;SDS011;41329;41.594;23.810;2023-05-14T05:29:41;21.83;;;16.48;;
55465;SDS011;41329;41.594;23.810;2023-05-14T05:32:07;9.45;;;8.57;;
55465;SDS011;41329;41.594;23.810;2023-05-14T05:34:33;8.75;;;8.15;;
55465;SDS011;41329;41.594;23.810;2023-05-14T05:36:59;8.60;;;7.63;;
55465;SDS011;41329;41.594;23.810;2023-05-14T05:39:24;9.13;;;8.52;;
55465;SDS011;41329;41.594;23.810;2023-05-14T05:41:49;24.33;;;18.17;;
55465;SDS011;41329;41.594;23.810;2023-05-14T05:44:15;58.13;;;36.10;;
55465;SDS011;41329;41.594;23.810;2023-05-14T05:46:40;15.80;;;14.27;;
55465;SDS011;41329;41.594;23.810;2023-05-14T05:49:06;11.20;;;10.40;;
55465;SDS011;41329;41.594;23.810;2023-05-14T05:51:31;11.60;;;10.57;;
55465;SDS011;41329;41.594;23.810;2023-05-14T05:53:57;12.88;;;11.65;;
55465;SDS011;41329;41.594;23.810;2023-05-14T05:56:22;12.25;;;10.27;;
55465;SDS011;41329;41.594;23.810;2023-05-14T05:58:48;11.68;;;10.85;;
55465;SDS011;41329;41.594;23.810;2023-05-14T06:01:13;12.63;;;11.82;;
55465;SDS011;41329;41.594;23.810;2023-05-14T06:03:38;10.05;;;9.45;;
55465;SDS011;41329;41.594;23.810;2023-05-14T06:06:04;9.43;;;8.73;;
55465;SDS011;41329;41.594;23.810;2023-05-14T06:08:30;8.50;;;7.97;;
55465;SDS011;41329;41.594;23.810;2023-05-14T06:10:56;8.82;;;8.27;;
55465;SDS011;41329;41.594;23.810;2023-05-14T06:13:21;8.90;;;8.30;;
55465;SDS011;41329;41.594;23.810;2023-05-14T06:15:46;9.77;;;9.07;;
55465;SDS011;41329;41.594;23.810;2023-05-14T06:18:12;9.60;;;8.75;;
55465;SDS011;41329;41.594;23.810;2023-05-14T06:20:37;9.32;;;8.63;;
55465;SDS011;41329;41.594;23.810;2023-05-14T06:23:03;8.88;;;8.32;;
55465;SDS011;41329;41.594;23.810;2023-05-14T06:25:30;9.32;;;8.82;;
55465;SDS011;41329;41.594;23.810;2023-05-14T06:27:55;8.43;;;7.93;;
55465;SDS011;41329;41.594;23.810;2023-05-14T06:30:20;13.93;;;13.13;;
55465;SDS011;41329;41.594;23.810;2023-05-14T06:32:46;12.85;;;12.05;;
55465;SDS011;41329;41.594;23.810;2023-05-14T06:35:11;12.93;;;11.95;;
55465;SDS011;41329;41.594;23.810;2023-05-14T06:37:36;9.82;;;9.18;;
55465;SDS011;41329;41.594;23.810;2023-05-14T06:40:02;9.55;;;8.57;;
55465;SDS011;41329;41.594;23.810;2023-05-14T06:42:28;8.80;;;8.10;;
55465;SDS011;41329;41.594;23.810;2023-05-14T06:44:53;10.90;;;10.10;;
55465;SDS011;41329;41.594;23.810;2023-05-14T06:47:19;10.48;;;9.77;;
55465;SDS011;41329;41.594;23.810;2023-05-14T06:49:45;11.07;;;10.32;;
55465;SDS011;41329;41.594;23.810;2023-05-14T06:52:10;13.05;;;9.75;;
55465;SDS011;41329;41.594;23.810;2023-05-14T06:54:36;12.20;;;11.30;;
55465;SDS011;41329;41.594;23.810;2023-05-14T06:57:02;12.70;;;11.60;;
55465;SDS011;41329;41.594;23.810;2023-05-14T06:59:27;12.68;;;11.77;;
55465;SDS011;41329;41.594;23.810;2023-05-14T07:01:53;14.02;;;13.13;;
55465;SDS011;41329;41.594;23.810;2023-05-14T07:04:18;19.70;;;18.35;;
55465;SDS011;41329;41.594;23.810;2023-05-14T07:06:43;15.82;;;14.95;;
55465;SDS011;41329;41.594;23.810;2023-05-14T07:09:09;16.05;;;14.55;;
55465;SDS011;41329;41.594;23.810;2023-05-14T07:11:34;51.83;;;26.27;;
55465;SDS011;41329;41.594;23.810;2023-05-14T07:14:00;28.73;;;17.63;;
55465;SDS011;41329;41.594;23.810;2023-05-14T07:16:25;29.13;;;19.25;;
55465;SDS011;41329;41.594;23.810;2023-05-14T07:18:51;33.70;;;20.38;;
55465;SDS011;41329;41.594;23.810;2023-05-14T07:21:16;9.40;;;8.73;;
55465;SDS011;41329;41.594;23.810;2023-05-14T07:23:42;9.63;;;8.80;;
55465;SDS011;41329;41.594;23.810;2023-05-14T07:26:07;8.80;;;8.32;;
55465;SDS011;41329;41.594;23.810;2023-05-14T07:28:33;8.70;;;8.20;;
55465;SDS011;41329;41.594;23.810;2023-05-14T07:30:58;9.68;;;8.98;;
55465;SDS011;41329;41.594;23.810;2023-05-14T07:33:24;9.43;;;8.68;;
55465;SDS011;41329;41.594;23.810;2023-05-14T07:35:51;9.43;;;8.93;;
55465;SDS011;41329;41.594;23.810;2023-05-14T07:38:17;11.52;;;8.02;;
55465;SDS011;41329;41.594;23.810;2023-05-14T07:40:43;9.00;;;8.45;;
55465;SDS011;41329;41.594;23.810;2023-05-14T07:43:08;8.90;;;8.40;;
55465;SDS011;41329;41.594;23.810;2023-05-14T07:45:37;9.55;;;8.85;;
55465;SDS011;41329;41.594;23.810;2023-05-14T07:48:03;9.45;;;8.68;;
55465;SDS011;41329;41.594;23.810;2023-05-14T07:50:28;9.82;;;9.25;;
55465;SDS011;41329;41.594;23.810;2023-05-14T07:52:54;11.85;;;10.85;;
55465;SDS011;41329;41.594;23.810;2023-05-14T07:55:19;11.48;;;10.57;;
55465;SDS011;41329;41.594;23.810;2023-05-14T07:57:45;11.65;;;10.77;;
55465;SDS011;41329;41.594;23.810;2023-05-14T08:00:10;11.93;;;11.20;;
55465;SDS011;41329;41.594;23.810;2023-05-14T08:02:36;10.32;;;9.82;;
55465;SDS011;41329;41.594;23.810;2023-05-14T08:05:01;10.23;;;9.57;;
55465;SDS011;41329;41.594;23.810;2023-05-14T08:07:28;9.90;;;9.10;;
55465;SDS011;41329;41.594;23.810;2023-05-14T08:09:54;10.53;;;9.37;;
55465;SDS011;41329;41.594;23.810;2023-05-14T08:12:19;10.53;;;9.57;;
55465;SDS011;41329;41.594;23.810;2023-05-14T08:14:45;9.23;;;8.65;;
55465;SDS011;41329;41.594;23.810;2023-05-14T08:17:10;10.02;;;9.05;;
55465;SDS011;41329;41.594;23.810;2023-05-14T08:19:36;9.85;;;9.02;;
55465;SDS011;41329;41.594;23.810;2023-05-14T08:22:01;10.38;;;9.25;;
55465;SDS011;41329;41.594;23.810;2023-05-14T08:24:27;10.68;;;9.85;;
55465;SDS011;41329;41.594;23.810;2023-05-14T08:26:53;10.43;;;9.82;;
55465;SDS011;41329;41.594;23.810;2023-05-14T08:29:18;12.50;;;11.50;;
55465;SDS011;41329;41.594;23.810;2023-05-14T08:31:44;13.27;;;12.50;;
55465;SDS011;41329;41.594;23.810;2023-05-14T08:34:10;13.43;;;12.52;;
55465;SDS011;41329;41.594;23.810;2023-05-14T08:36:35;12.88;;;12.18;;
55465;SDS011;41329;41.594;23.810;2023-05-14T08:39:00;15.18;;;13.82;;
55465;SDS011;41329;41.594;23.810;2023-05-14T08:41:26;14.52;;;13.38;;
55465;SDS011;41329;41.594;23.810;2023-05-14T08:46:35;11.60;;;10.90;;
55465;SDS011;41329;41.594;23.810;2023-05-14T08:51:58;14.27;;;13.05;;
55465;SDS011;41329;41.594;23.810;2023-05-14T08:54:24;15.75;;;14.57;;
55465;SDS011;41329;41.594;23.810;2023-05-14T08:56:51;34.85;;;31.08;;
55465;SDS011;41329;41.594;23.810;2023-05-14T08:59:17;36.53;;;33.20;;
55465;SDS011;41329;41.594;23.810;2023-05-14T09:01:43;25.02;;;22.63;;
55465;SDS011;41329;41.594;23.810;2023-05-14T09:04:12;20.50;;;18.75;;
55465;SDS011;41329;41.594;23.810;2023-05-14T09:06:40;16.88;;;15.40;;
55465;SDS011;41329;41.594;23.810;2023-05-14T09:09:07;14.70;;;13.60;;
55465;SDS011;41329;41.594;23.810;2023-05-14T09:11:39;14.68;;;13.88;;
55465;SDS011;41329;41.594;23.810;2023-05-14T09:14:05;14.82;;;13.43;;
55465;SDS011;41329;41.594;23.810;2023-05-14T09:16:30;13.02;;;11.90;;
55465;SDS011;41329;41.594;23.810;2023-05-14T09:18:56;10.73;;;10.07;;
55465;SDS011;41329;41.594;23.810;2023-05-14T09:21:22;11.30;;;10.60;;
55465;SDS011;41329;41.594;23.810;2023-05-14T09:23:47;11.07;;;10.15;;
55465;SDS011;41329;41.594;23.810;2023-05-14T09:26:20;9.63;;;8.80;;
55465;SDS011;41329;41.594;23.810;2023-05-14T09:28:47;9.35;;;8.80;;
55465;SDS011;41329;41.594;23.810;2023-05-14T09:31:13;9.35;;;8.85;;
55465;SDS011;41329;41.594;23.810;2023-05-14T09:33:38;9.13;;;8.43;;
55465;SDS011;41329;41.594;23.810;2023-05-14T09:36:04;8.75;;;8.15;;
55465;SDS011;41329;41.594;23.810;2023-05-14T09:38:29;8.05;;;7.65;;
55465;SDS011;41329;41.594;23.810;2023-05-14T09:40:56;8.60;;;8.00;;
55465;SDS011;41329;41.594;23.810;2023-05-14T09:43:22;7.10;;;6.57;;
55465;SDS011;41329;41.594;23.810;2023-05-14T09:45:47;5.63;;;5.22;;
55465;SDS011;41329;41.594;23.810;2023-05-14T09:48:13;6.43;;;6.03;;
55465;SDS011;41329;41.594;23.810;2023-05-14T09:50:42;3.95;;;3.65;;
55465;SDS011;41329;41.594;23.810;2023-05-14T09:53:08;3.80;;;3.60;;
55465;SDS011;41329;41.594;23.810;2023-05-14T09:55:35;4.25;;;3.90;;
55465;SDS011;41329;41.594;23.810;2023-05-14T09:58:01;6.32;;;5.90;;
55465;SDS011;41329;41.594;23.810;2023-05-14T10:00:26;51.72;;;27.23;;
55465;SDS011;41329;41.594;23.810;2023-05-14T10:02:53;10.98;;;10.05;;
55465;SDS011;41329;41.594;23.810;2023-05-14T10:05:20;10.75;;;9.73;;
55465;SDS011;41329;41.594;23.810;2023-05-14T10:07:47;15.02;;;10.85;;
55465;SDS011;41329;41.594;23.810;2023-05-14T10:10:17;4.70;;;4.40;;
55465;SDS011;41329;41.594;23.810;2023-05-14T10:12:45;5.40;;;4.85;;
55465;SDS011;41329;41.594;23.810;2023-05-14T10:15:19;5.00;;;4.70;;
55465;SDS011;41329;41.594;23.810;2023-05-14T10:17:59;4.05;;;3.75;;
55465;SDS011;41329;41.594;23.810;2023-05-14T10:20:33;4.60;;;4.18;;
55465;SDS011;41329;41.594;23.810;2023-05-14T10:23:00;4.88;;;4.53;;
55465;SDS011;41329;41.594;23.810;2023-05-14T10:25:26;5.05;;;4.40;;
55465;SDS011;41329;41.594;23.810;2023-05-14T10:27:52;4.05;;;3.75;;
55465;SDS011;41329;41.594;23.810;2023-05-14T10:30:20;17.65;;;16.05;;
55465;SDS011;41329;41.594;23.810;2023-05-14T10:32:47;4.85;;;4.43;;
55465;SDS011;41329;41.594;23.810;2023-05-14T10:35:16;4.25;;;3.85;;
55465;SDS011;41329;41.594;23.810;2023-05-14T10:37:44;4.45;;;4.15;;
55465;SDS011;41329;41.594;23.810;2023-05-14T10:40:10;5.47;;;4.97;;
55465;SDS011;41329;41.594;23.810;2023-05-14T10:42:37;4.10;;;3.80;;
55465;SDS011;41329;41.594;23.810;2023-05-14T10:45:08;4.97;;;4.68;;
55465;SDS011;41329;41.594;23.810;2023-05-14T10:47:35;4.25;;;3.95;;
55465;SDS011;41329;41.594;23.810;2023-05-14T10:50:03;4.63;;;4.22;;
55465;SDS011;41329;41.594;23.810;2023-05-14T10:52:30;3.50;;;3.30;;
55465;SDS011;41329;41.594;23.810;2023-05-14T10:54:57;3.78;;;3.47;;
55465;SDS011;41329;41.594;23.810;2023-05-14T10:57:25;4.53;;;3.72;;
55465;SDS011;41329;41.594;23.810;2023-05-14T10:59:53;4.88;;;4.47;;
55465;SDS011;41329;41.594;23.810;2023-05-14T11:02:34;4.18;;;3.78;;
55465;SDS011;41329;41.594;23.810;2023-05-14T11:05:05;5.22;;;4.80;;
55465;SDS011;41329;41.594;23.810;2023-05-14T11:07:34;4.22;;;3.92;;
55465;SDS011;41329;41.594;23.810;2023-05-14T11:10:10;4.22;;;3.92;;
55465;SDS011;41329;41.594;23.810;2023-05-14T11:12:38;3.78;;;3.47;;
55465;SDS011;41329;41.594;23.810;2023-05-14T11:15:11;8.75;;;7.55;;
55465;SDS011;41329;41.594;23.810;2023-05-14T11:17:41;5.03;;;4.10;;
55465;SDS011;41329;41.594;23.810;2023-05-14T11:20:08;4.25;;;3.85;;
55465;SDS011;41329;41.594;23.810;2023-05-14T11:22:34;4.45;;;4.00;;
55465;SDS011;41329;41.594;23.810;2023-05-14T11:25:01;4.10;;;3.80;;
55465;SDS011;41329;41.594;23.810;2023-05-14T11:27:27;5.05;;;4.57;;
55465;SDS011;41329;41.594;23.810;2023-05-14T11:29:53;4.55;;;4.22;;
55465;SDS011;41329;41.594;23.810;2023-05-14T11:32:19;5.38;;;4.65;;
55465;SDS011;41329;41.594;23.810;2023-05-14T11:34:45;7.38;;;6.78;;
55465;SDS011;41329;41.594;23.810;2023-05-14T11:37:12;5.30;;;4.90;;
55465;SDS011;41329;41.594;23.810;2023-05-14T11:39:42;5.10;;;4.70;;
55465;SDS011;41329;41.594;23.810;2023-05-14T11:42:15;4.00;;;3.63;;
55465;SDS011;41329;41.594;23.810;2023-05-14T11:44:43;3.63;;;3.42;;
55465;SDS011;41329;41.594;23.810;2023-05-14T11:47:09;4.88;;;4.43;;
55465;SDS011;41329;41.594;23.810;2023-05-14T11:49:36;4.97;;;4.43;;
55465;SDS011;41329;41.594;23.810;2023-05-14T11:52:03;5.85;;;5.35;;
55465;SDS011;41329;41.594;23.810;2023-05-14T11:54:32;5.20;;;3.90;;
55465;SDS011;41329;41.594;23.810;2023-05-14T11:57:00;4.80;;;4.40;;
55465;SDS011;41329;41.594;23.810;2023-05-14T11:59:27;4.28;;;3.88;;
55465;SDS011;41329;41.594;23.810;2023-05-14T12:01:53;3.78;;;3.47;;
55465;SDS011;41329;41.594;23.810;2023-05-14T12:04:19;4.45;;;4.15;;
55465;SDS011;41329;41.594;23.810;2023-05-14T12:06:47;3.67;;;3.47;;
55465;SDS011;41329;41.594;23.810;2023-05-14T12:09:14;4.25;;;4.05;;
55465;SDS011;41329;41.594;23.810;2023-05-14T12:11:42;5.15;;;4.65;;
55465;SDS011;41329;41.594;23.810;2023-05-14T12:14:15;4.53;;;4.22;;
55465;SDS011;41329;41.594;23.810;2023-05-14T12:16:44;4.35;;;4.05;;
55465;SDS011;41329;41.594;23.810;2023-05-14T12:19:11;3.85;;;3.55;;
55465;SDS011;41329;41.594;23.810;2023-05-14T12:21:39;4.28;;;3.22;;
55465;SDS011;41329;41.594;23.810;2023-05-14T12:24:08;3.40;;;3.17;;
55465;SDS011;41329;41.594;23.810;2023-05-14T12:26:36;4.68;;;3.50;;
55465;SDS011;41329;41.594;23.810;2023-05-14T12:29:03;4.28;;;3.88;;
55465;SDS011;41329;41.594;23.810;2023-05-14T12:31:31;4.15;;;3.85;;
55465;SDS011;41329;41.594;23.810;2023-05-14T12:33:57;6.30;;;3.63;;
55465;SDS011;41329;41.594;23.810;2023-05-14T12:36:23;3.70;;;3.40;;
55465;SDS011;41329;41.594;23.810;2023-05-14T12:38:49;6.15;;;3.88;;
55465;SDS011;41329;41.594;23.810;2023-05-14T12:41:15;4.75;;;4.18;;
55465;SDS011;41329;41.594;23.810;2023-05-14T12:43:42;4.55;;;4.15;;
55465;SDS011;41329;41.594;23.810;2023-05-14T12:46:08;3.55;;;3.25;;
55465;SDS011;41329;41.594;23.810;2023-05-14T12:48:33;5.72;;;3.58;;
55465;SDS011;41329;41.594;23.810;2023-05-14T12:50:59;4.80;;;4.00;;
55465;SDS011;41329;41.594;23.810;2023-05-14T12:53:24;5.65;;;4.45;;
55465;SDS011;41329;41.594;23.810;2023-05-14T12:55:50;4.50;;;3.47;;
55465;SDS011;41329;41.594;23.810;2023-05-14T12:58:15;4.75;;;4.28;;
55465;SDS011;41329;41.594;23.810;2023-05-14T13:00:41;4.97;;;3.67;;
55465;SDS011;41329;41.594;23.810;2023-05-14T13:03:06;4.10;;;3.60;;
55465;SDS011;41329;41.594;23.810;2023-05-14T13:05:31;6.07;;;4.22;;
55465;SDS011;41329;41.594;23.810;2023-05-14T13:07:57;4.20;;;3.78;;
55465;SDS011;41329;41.594;23.810;2023-05-14T13:10:24;5.05;;;4.03;;
55465;SDS011;41329;41.594;23.810;2023-05-14T13:12:50;4.32;;;3.65;;
55465;SDS011;41329;41.594;23.810;2023-05-14T13:15:16;4.07;;;3.78;;
55465;SDS011;41329;41.594;23.810;2023-05-14T13:17:42;4.45;;;4.15;;
55465;SDS011;41329;41.594;23.810;2023-05-14T13:20:08;6.68;;;4.43;;
55465;SDS011;41329;41.594;23.810;2023-05-14T13:22:33;4.75;;;4.18;;
55465;SDS011;41329;41.594;23.810;2023-05-14T13:24:59;4.90;;;4.43;;
55465;SDS011;41329;41.594;23.810;2023-05-14T13:27:24;5.25;;;4.93;;
55465;SDS011;41329;41.594;23.810;2023-05-14T13:29:50;5.28;;;4.88;;
55465;SDS011;41329;41.594;23.810;2023-05-14T13:32:16;5.82;;;5.38;;
55465;SDS011;41329;41.594;23.810;2023-05-14T13:34:41;6.63;;;4.57;;
55465;SDS011;41329;41.594;23.810;2023-05-14T13:37:08;5.18;;;4.88;;
55465;SDS011;41329;41.594;23.810;2023-05-14T13:39:33;4.93;;;4.53;;
55465;SDS011;41329;41.594;23.810;2023-05-14T13:41:59;5.22;;;4.68;;
55465;SDS011;41329;41.594;23.810;2023-05-14T13:44:25;5.15;;;4.72;;
55465;SDS011;41329;41.594;23.810;2023-05-14T13:46:51;6.75;;;5.65;;
55465;SDS011;41329;41.594;23.810;2023-05-14T13:49:17;5.28;;;4.82;;
55465;SDS011;41329;41.594;23.810;2023-05-14T13:51:42;5.18;;;4.75;;
55465;SDS011;41329;41.594;23.810;2023-05-14T13:54:08;5.30;;;5.00;;
55465;SDS011;41329;41.594;23.810;2023-05-14T13:56:33;11.98;;;11.27;;
55465;SDS011;41329;41.594;23.810;2023-05-14T13:58:59;14.70;;;13.55;;
55465;SDS011;41329;41.594;23.810;2023-05-14T14:01:24;12.05;;;10.85;;
55465;SDS011;41329;41.594;23.810;2023-05-14T14:03:50;10.10;;;8.95;;
55465;SDS011;41329;41.594;23.810;2023-05-14T14:06:15;7.10;;;6.38;;
55465;SDS011;41329;41.594;23.810;2023-05-14T14:08:40;10.60;;;9.93;;
55465;SDS011;41329;41.594;23.810;2023-05-14T14:11:06;9.90;;;9.20;;
55465;SDS011;41329;41.594;23.810;2023-05-14T14:13:31;11.10;;;10.43;;
55465;SDS011;41329;41.594;23.810;2023-05-14T14:15:57;6.85;;;6.45;;
55465;SDS011;41329;41.594;23.810;2023-05-14T14:18:22;15.63;;;14.10;;
55465;SDS011;41329;41.594;23.810;2023-05-14T14:20:48;10.15;;;9.45;;
55465;SDS011;41329;41.594;23.810;2023-05-14T14:23:13;40.13;;;26.30;;
55465;SDS011;41329;41.594;23.810;2023-05-14T14:25:39;56.30;;;38.95;;
55465;SDS011;41329;41.594;23.810;2023-05-14T14:28:04;7.25;;;6.70;;
55465;SDS011;41329;41.594;23.810;2023-05-14T14:30:29;5.53;;;5.10;;
55465;SDS011;41329;41.594;23.810;2023-05-14T14:32:56;6.22;;;5.65;;
55465;SDS011;41329;41.594;23.810;2023-05-14T14:35:25;14.20;;;13.23;;
55465;SDS011;41329;41.594;23.810;2023-05-14T14:37:50;7.38;;;6.97;;
55465;SDS011;41329;41.594;23.810;2023-05-14T14:40:17;8.40;;;5.88;;